sensor_id;sensor_type;location;lat;lon;timestamp;pressure;altitude;pressure_sealevel;temperature;humidity
72921;BME280;61064;51.654;5.476;2023-05-23T00:02:15;101892.31;;;15.72;76.64
72921;BME280;61064;51.654;5.476;2023-05-23T00:04:40;101884.28;;;15.74;76.75
72921;BME280;61064;51.654;5.476;2023-05-23T00:07:07;101878.91;;;15.74;76.51
72921;BME280;61064;51.654;5.476;2023-05-23T00:09:32;101882.50;;;15.76;76.53
72921;BME280;61064;51.654;5.476;2023-05-23T00:11:57;101893.22;;;15.76;76.53
72921;BME280;61064;51.654;5.476;2023-05-23T00:14:23;101881.59;;;15.74;76.72
72921;BME280;61064;51.654;5.476;2023-05-23T00:16:48;101893.22;;;15.74;76.58
72921;BME280;61064;51.654;5.476;2023-05-23T00:19:15;101889.63;;;15.72;76.65
72921;BME280;61064;51.654;5.476;2023-05-23T00:21:45;101888.75;;;15.73;76.68
72921;BME280;61064;51.654;5.476;2023-05-23T00:24:12;101896.81;;;15.70;76.57
72921;BME280;61064;51.654;5.476;2023-05-23T00:26:38;101888.75;;;15.69;76.57
72921;BME280;61064;51.654;5.476;2023-05-23T00:29:04;101889.63;;;15.68;76.68
72921;BME280;61064;51.654;5.476;2023-05-23T00:31:29;101888.75;;;15.66;76.59
72921;BME280;61064;51.654;5.476;2023-05-23T00:33:55;101895.88;;;15.67;76.65
72921;BME280;61064;51.654;5.476;2023-05-23T00:36:21;101901.25;;;15.65;76.62
72921;BME280;61064;51.654;5.476;2023-05-23T00:38:48;101902.13;;;15.67;76.62
72921;BME280;61064;51.654;5.476;2023-05-23T00:41:14;101920.03;;;15.70;76.55
72921;BME280;61064;51.654;5.476;2023-05-23T00:43:40;101905.72;;;15.65;76.52
72921;BME280;61064;51.654;5.476;2023-05-23T00:46:06;101905.72;;;15.63;76.58
72921;BME280;61064;51.654;5.476;2023-05-23T00:48:32;101926.28;;;15.63;76.56
72921;BME280;61064;51.654;5.476;2023-05-23T00:50:57;101916.44;;;15.63;76.49
72921;BME280;61064;51.654;5.476;2023-05-23T00:53:23;101931.66;;;15.64;76.53
72921;BME280;61064;51.654;5.476;2023-05-23T00:55:49;101912.88;;;15.60;76.53
72921;BME280;61064;51.654;5.476;2023-05-23T00:58:15;101919.13;;;15.59;76.60
72921;BME280;61064;51.654;5.476;2023-05-23T01:00:42;101921.78;;;15.57;76.45
72921;BME280;61064;51.654;5.476;2023-05-23T01:03:09;101919.09;;;15.56;76.40
72921;BME280;61064;51.654;5.476;2023-05-23T01:05:42;101924.47;;;15.56;76.48
72921;BME280;61064;51.654;5.476;2023-05-23T01:08:08;101921.78;;;15.54;76.46
72921;BME280;61064;51.654;5.476;2023-05-23T01:10:33;101936.09;;;15.58;76.49
72921;BME280;61064;51.654;5.476;2023-05-23T01:13:28;101922.66;;;15.56;76.63
72921;BME280;61064;51.654;5.476;2023-05-23T01:15:57;101936.13;;;15.59;76.61
72921;BME280;61064;51.654;5.476;2023-05-23T01:18:34;101923.59;;;15.58;76.63
72921;BME280;61064;51.654;5.476;2023-05-23T01:21:22;101923.56;;;15.57;76.62
72921;BME280;61064;51.654;5.476;2023-05-23T01:24:18;101931.63;;;15.57;76.61
72921;BME280;61064;51.654;5.476;2023-05-23T01:29:31;101930.72;;;15.53;76.77
72921;BME280;61064;51.654;5.476;2023-05-23T01:31:58;101938.78;;;15.55;76.75
72921;BME280;61064;51.654;5.476;2023-05-23T01:34:25;101947.72;;;15.58;76.86
72921;BME280;61064;51.654;5.476;2023-05-23T01:36:53;101942.34;;;15.54;76.74
72921;BME280;61064;51.654;5.476;2023-05-23T01:39:22;101944.06;;;15.50;76.94
72921;BME280;61064;51.654;5.476;2023-05-23T01:41:51;101941.41;;;15.47;77.07
72921;BME280;61064;51.654;5.476;2023-05-23T01:44:17;101938.69;;;15.44;77.24
72921;BME280;61064;51.654;5.476;2023-05-23T01:46:43;101935.09;;;15.39;77.33
72921;BME280;61064;51.654;5.476;2023-05-23T01:49:11;101948.53;;;15.37;77.49
72921;BME280;61064;51.654;5.476;2023-05-23T01:51:38;101945.81;;;15.36;77.54
72921;BME280;61064;51.654;5.476;2023-05-23T01:54:03;101949.38;;;15.33;77.69
72921;BME280;61064;51.654;5.476;2023-05-23T01:56:29;101956.53;;;15.34;77.70
72921;BME280;61064;51.654;5.476;2023-05-23T01:58:55;101962.78;;;15.33;77.72
72921;BME280;61064;51.654;5.476;2023-05-23T02:01:20;101958.31;;;15.31;77.88
72921;BME280;61064;51.654;5.476;2023-05-23T02:03:46;101960.97;;;15.29;77.69
72921;BME280;61064;51.654;5.476;2023-05-23T02:06:11;101964.53;;;15.28;77.77
72921;BME280;61064;51.654;5.476;2023-05-23T02:08:37;101960.09;;;15.26;77.69
72921;BME280;61064;51.654;5.476;2023-05-23T02:11:03;101968.09;;;15.24;77.83
72921;BME280;61064;51.654;5.476;2023-05-23T02:13:28;101974.34;;;15.22;77.84
72921;BME280;61064;51.654;5.476;2023-05-23T02:15:53;101969.00;;;15.23;77.89
72921;BME280;61064;51.654;5.476;2023-05-23T02:18:19;101972.56;;;15.24;77.95
72921;BME280;61064;51.654;5.476;2023-05-23T02:20:45;101969.00;;;15.20;77.76
72921;BME280;61064;51.654;5.476;2023-05-23T02:23:10;101976.13;;;15.21;77.71
72921;BME280;61064;51.654;5.476;2023-05-23T02:25:35;101983.25;;;15.16;77.77
72921;BME280;61064;51.654;5.476;2023-05-23T02:28:01;101966.25;;;15.13;77.74
72921;BME280;61064;51.654;5.476;2023-05-23T02:30:26;101978.78;;;15.17;78.08
72921;BME280;61064;51.654;5.476;2023-05-23T02:32:52;101975.22;;;15.15;77.86
72921;BME280;61064;51.654;5.476;2023-05-23T02:35:17;101974.31;;;15.14;77.84
72921;BME280;61064;51.654;5.476;2023-05-23T02:37:42;101968.94;;;15.13;77.84
72921;BME280;61064;51.654;5.476;2023-05-23T02:40:08;101971.63;;;15.13;77.98
72921;BME280;61064;51.654;5.476;2023-05-23T02:42:33;101967.13;;;15.07;78.02
72921;BME280;61064;51.654;5.476;2023-05-23T02:44:59;101975.13;;;15.06;77.92
72921;BME280;61064;51.654;5.476;2023-05-23T02:47:24;101976.03;;;15.03;77.86
72921;BME280;61064;51.654;5.476;2023-05-23T02:49:50;101984.91;;;14.99;78.02
72921;BME280;61064;51.654;5.476;2023-05-23T02:52:15;101970.59;;;14.95;77.95
72921;BME280;61064;51.654;5.476;2023-05-23T02:54:41;101966.13;;;14.91;77.98
72921;BME280;61064;51.654;5.476;2023-05-23T02:57:07;101967.00;;;14.90;78.21
72921;BME280;61064;51.654;5.476;2023-05-23T02:59:32;101970.56;;;14.88;78.26
72921;BME280;61064;51.654;5.476;2023-05-23T03:01:58;101975.91;;;14.86;78.18
72921;BME280;61064;51.654;5.476;2023-05-23T03:04:23;101973.25;;;14.86;78.24
72921;BME280;61064;51.654;5.476;2023-05-23T03:06:48;101977.69;;;14.86;78.40
72921;BME280;61064;51.654;5.476;2023-05-23T03:09:14;101975.03;;;14.87;78.31
72921;BME280;61064;51.654;5.476;2023-05-23T03:11:41;101967.00;;;14.87;78.34
72921;BME280;61064;51.654;5.476;2023-05-23T03:14:07;101976.78;;;14.84;78.38
72921;BME280;61064;51.654;5.476;2023-05-23T03:16:32;101968.75;;;14.81;78.44
72921;BME280;61064;51.654;5.476;2023-05-23T03:18:57;101966.97;;;14.81;78.17
72921;BME280;61064;51.654;5.476;2023-05-23T03:21:23;101974.09;;;14.84;78.69
72921;BME280;61064;51.654;5.476;2023-05-23T03:23:49;101976.78;;;14.81;78.62
72921;BME280;61064;51.654;5.476;2023-05-23T03:26:14;101978.56;;;14.80;78.64
72921;BME280;61064;51.654;5.476;2023-05-23T03:28:40;101994.63;;;14.80;78.61
72921;BME280;61064;51.654;5.476;2023-05-23T03:31:05;101983.88;;;14.76;78.82
72921;BME280;61064;51.654;5.476;2023-05-23T03:33:30;101983.88;;;14.77;78.91
72921;BME280;61064;51.654;5.476;2023-05-23T03:35:56;101993.75;;;14.81;78.69
72921;BME280;61064;51.654;5.476;2023-05-23T03:38:21;101991.06;;;14.81;78.90
72921;BME280;61064;51.654;5.476;2023-05-23T03:40:47;101989.28;;;14.83;78.87
72921;BME280;61064;51.654;5.476;2023-05-23T03:43:12;101979.47;;;14.84;78.80
72921;BME280;61064;51.654;5.476;2023-05-23T03:45:37;101984.81;;;14.81;78.76
72921;BME280;61064;51.654;5.476;2023-05-23T03:48:03;101985.69;;;14.83;78.79
72921;BME280;61064;51.654;5.476;2023-05-23T03:50:28;102002.69;;;14.83;78.93
72921;BME280;61064;51.654;5.476;2023-05-23T03:52:54;101998.22;;;14.84;78.94
72921;BME280;61064;51.654;5.476;2023-05-23T03:55:23;102006.25;;;14.84;78.90
72921;BME280;61064;51.654;5.476;2023-05-23T03:57:50;101996.44;;;14.81;79.02
72921;BME280;61064;51.654;5.476;2023-05-23T04:00:16;102002.69;;;14.83;78.88
72921;BME280;61064;51.654;5.476;2023-05-23T04:02:43;102001.78;;;14.83;79.06
72921;BME280;61064;51.654;5.476;2023-05-23T04:05:08;102007.13;;;14.83;78.99
72921;BME280;61064;51.654;5.476;2023-05-23T04:07:34;102007.16;;;14.84;78.81
72921;BME280;61064;51.654;5.476;2023-05-23T04:10:00;102008.06;;;14.82;79.15
72921;BME280;61064;51.654;5.476;2023-05-23T04:12:26;102004.44;;;14.78;78.89
72921;BME280;61064;51.654;5.476;2023-05-23T04:14:54;102015.19;;;14.81;79.03
72921;BME280;61064;51.654;5.476;2023-05-23T04:17:27;102004.41;;;14.75;79.19
72921;BME280;61064;51.654;5.476;2023-05-23T04:19:55;102014.22;;;14.75;79.00
72921;BME280;61064;51.654;5.476;2023-05-23T04:22:20;102016.94;;;14.76;79.13
72921;BME280;61064;51.654;5.476;2023-05-23T04:24:45;102022.28;;;14.75;79.12
72921;BME280;61064;51.654;5.476;2023-05-23T04:27:11;102022.25;;;14.73;79.08
72921;BME280;61064;51.654;5.476;2023-05-23T04:29:37;102030.34;;;14.76;79.07
72921;BME280;61064;51.654;5.476;2023-05-23T04:32:04;102028.50;;;14.77;79.07
72921;BME280;61064;51.654;5.476;2023-05-23T04:34:30;102041.03;;;14.76;79.18
72921;BME280;61064;51.654;5.476;2023-05-23T04:36:59;102038.34;;;14.78;79.34
72921;BME280;61064;51.654;5.476;2023-05-23T04:39:30;102039.25;;;14.78;79.18
72921;BME280;61064;51.654;5.476;2023-05-23T04:41:55;102041.97;;;14.80;78.85
72921;BME280;61064;51.654;5.476;2023-05-23T04:44:21;102047.28;;;14.77;78.92
72921;BME280;61064;51.654;5.476;2023-05-23T04:46:47;102048.19;;;14.76;78.95
72921;BME280;61064;51.654;5.476;2023-05-23T04:49:12;102049.94;;;14.74;78.81
72921;BME280;61064;51.654;5.476;2023-05-23T04:51:38;102049.06;;;14.75;78.90
72921;BME280;61064;51.654;5.476;2023-05-23T04:54:05;102052.63;;;14.77;78.88
72921;BME280;61064;51.654;5.476;2023-05-23T04:56:30;102066.94;;;14.79;78.82
72921;BME280;61064;51.654;5.476;2023-05-23T04:58:56;102063.38;;;14.80;78.83
72921;BME280;61064;51.654;5.476;2023-05-23T05:01:21;102058.00;;;14.78;78.74
72921;BME280;61064;51.654;5.476;2023-05-23T05:03:48;102076.81;;;14.81;78.71
72921;BME280;61064;51.654;5.476;2023-05-23T05:06:14;102071.41;;;14.78;78.66
72921;BME280;61064;51.654;5.476;2023-05-23T05:08:40;102075.88;;;14.76;78.65
72921;BME280;61064;51.654;5.476;2023-05-23T05:11:05;102075.84;;;14.75;78.62
72921;BME280;61064;51.654;5.476;2023-05-23T05:13:31;102080.28;;;14.73;78.55
72921;BME280;61064;51.654;5.476;2023-05-23T05:15:56;102080.25;;;14.71;78.33
72921;BME280;61064;51.654;5.476;2023-05-23T05:18:24;102077.53;;;14.64;78.52
72921;BME280;61064;51.654;5.476;2023-05-23T05:20:49;102080.16;;;14.61;78.70
72921;BME280;61064;51.654;5.476;2023-05-23T05:23:15;102091.78;;;14.60;78.59
72921;BME280;61064;51.654;5.476;2023-05-23T05:25:40;102089.03;;;14.52;78.32
72921;BME280;61064;51.654;5.476;2023-05-23T05:28:05;102100.63;;;14.52;78.61
72921;BME280;61064;51.654;5.476;2023-05-23T05:30:32;102081.81;;;14.45;78.52
72921;BME280;61064;51.654;5.476;2023-05-23T05:33:04;102090.69;;;14.41;78.51
72921;BME280;61064;51.654;5.476;2023-05-23T05:35:33;102092.44;;;14.39;78.69
72921;BME280;61064;51.654;5.476;2023-05-23T05:38:00;102096.91;;;14.37;78.77
72921;BME280;61064;51.654;5.476;2023-05-23T05:40:35;102105.84;;;14.37;78.63
72921;BME280;61064;51.654;5.476;2023-05-23T05:43:00;102106.63;;;14.33;78.71
72921;BME280;61064;51.654;5.476;2023-05-23T05:45:26;102103.94;;;14.30;78.63
72921;BME280;61064;51.654;5.476;2023-05-23T05:47:51;102116.44;;;14.31;78.46
72921;BME280;61064;51.654;5.476;2023-05-23T05:50:16;102119.97;;;14.29;78.65
72921;BME280;61064;51.654;5.476;2023-05-23T05:52:43;102118.13;;;14.23;78.50
72921;BME280;61064;51.654;5.476;2023-05-23T05:55:09;102127.91;;;14.21;78.59
72921;BME280;61064;51.654;5.476;2023-05-23T05:57:41;102123.41;;;14.17;78.49
72921;BME280;61064;51.654;5.476;2023-05-23T06:00:08;102131.38;;;14.12;78.62
72921;BME280;61064;51.654;5.476;2023-05-23T06:02:41;102125.91;;;14.05;78.60
72921;BME280;61064;51.654;5.476;2023-05-23T06:05:08;102130.38;;;14.03;78.64
72921;BME280;61064;51.654;5.476;2023-05-23T06:07:36;102130.31;;;14.00;78.63
72921;BME280;61064;51.654;5.476;2023-05-23T06:10:02;102132.13;;;14.01;78.67
72921;BME280;61064;51.654;5.476;2023-05-23T06:12:28;102132.16;;;14.02;78.68
72921;BME280;61064;51.654;5.476;2023-05-23T06:14:53;102133.84;;;13.99;78.32
72921;BME280;61064;51.654;5.476;2023-05-23T06:17:18;102139.22;;;13.97;78.57
72921;BME280;61064;51.654;5.476;2023-05-23T06:19:44;102133.81;;;13.93;78.41
72921;BME280;61064;51.654;5.476;2023-05-23T06:22:10;102140.00;;;13.90;78.52
72921;BME280;61064;51.654;5.476;2023-05-23T06:24:36;102153.31;;;13.86;78.35
72921;BME280;61064;51.654;5.476;2023-05-23T06:27:01;102149.69;;;13.81;78.39
72921;BME280;61064;51.654;5.476;2023-05-23T06:29:27;102156.81;;;13.80;78.41
72921;BME280;61064;51.654;5.476;2023-05-23T06:31:52;102155.91;;;13.80;78.48
72921;BME280;61064;51.654;5.476;2023-05-23T06:34:18;102154.97;;;13.76;78.38
72921;BME280;61064;51.654;5.476;2023-05-23T06:36:44;102168.34;;;13.78;78.41
72921;BME280;61064;51.654;5.476;2023-05-23T06:39:10;102169.22;;;13.75;78.28
72921;BME280;61064;51.654;5.476;2023-05-23T06:41:37;102166.50;;;13.70;78.16
72921;BME280;61064;51.654;5.476;2023-05-23T06:44:03;102178.91;;;13.67;78.10
72921;BME280;61064;51.654;5.476;2023-05-23T06:46:28;102178.00;;;13.66;78.16
72921;BME280;61064;51.654;5.476;2023-05-23T06:48:53;102174.44;;;13.67;77.92
72921;BME280;61064;51.654;5.476;2023-05-23T06:51:19;102172.66;;;13.65;77.81
72921;BME280;61064;51.654;5.476;2023-05-23T06:53:44;102178.94;;;13.68;77.46
72921;BME280;61064;51.654;5.476;2023-05-23T06:56:10;102186.13;;;13.72;77.81
72921;BME280;61064;51.654;5.476;2023-05-23T06:58:35;102187.94;;;13.75;77.38
72921;BME280;61064;51.654;5.476;2023-05-23T07:01:01;102183.50;;;13.77;77.12
72921;BME280;61064;51.654;5.476;2023-05-23T07:03:26;102190.75;;;13.84;76.97
72921;BME280;61064;51.654;5.476;2023-05-23T07:05:51;102188.13;;;13.89;76.53
72921;BME280;61064;51.654;5.476;2023-05-23T07:08:17;102184.66;;;13.94;76.23
72921;BME280;61064;51.654;5.476;2023-05-23T07:10:42;102193.63;;;13.99;76.01
72921;BME280;61064;51.654;5.476;2023-05-23T07:13:09;102195.53;;;14.06;75.67
72921;BME280;61064;51.654;5.476;2023-05-23T07:15:40;102204.63;;;14.19;75.04
72921;BME280;61064;51.654;5.476;2023-05-23T07:18:06;102198.47;;;14.26;75.13
72921;BME280;61064;51.654;5.476;2023-05-23T07:20:32;102209.38;;;14.37;74.60
72921;BME280;61064;51.654;5.476;2023-05-23T07:22:58;102213.88;;;14.44;74.28
72921;BME280;61064;51.654;5.476;2023-05-23T07:25:24;102214.88;;;14.50;74.08
72921;BME280;61064;51.654;5.476;2023-05-23T07:27:49;102215.88;;;14.59;73.69
72921;BME280;61064;51.654;5.476;2023-05-23T07:30:16;102209.72;;;14.67;72.96
72921;BME280;61064;51.654;5.476;2023-05-23T07:32:42;102216.91;;;14.73;72.56
72921;BME280;61064;51.654;5.476;2023-05-23T07:35:08;102216.06;;;14.75;72.27
72921;BME280;61064;51.654;5.476;2023-05-23T07:37:33;102228.59;;;14.76;72.23
72921;BME280;61064;51.654;5.476;2023-05-23T07:39:59;102220.50;;;14.73;71.94
72921;BME280;61064;51.654;5.476;2023-05-23T07:42:25;102224.06;;;14.71;71.65
72921;BME280;61064;51.654;5.476;2023-05-23T07:44:50;102224.91;;;14.68;71.65
72921;BME280;61064;51.654;5.476;2023-05-23T07:47:15;102225.00;;;14.77;71.95
72921;BME280;61064;51.654;5.476;2023-05-23T07:49:41;102230.47;;;14.86;71.80
72921;BME280;61064;51.654;5.476;2023-05-23T07:52:06;102228.75;;;14.91;71.51
72921;BME280;61064;51.654;5.476;2023-05-23T07:54:31;102235.00;;;14.92;71.46
72921;BME280;61064;51.654;5.476;2023-05-23T07:56:57;102229.63;;;14.93;71.22
72921;BME280;61064;51.654;5.476;2023-05-23T07:59:22;102238.63;;;14.95;71.20
72921;BME280;61064;51.654;5.476;2023-05-23T08:01:47;102240.44;;;14.99;71.15
72921;BME280;61064;51.654;5.476;2023-05-23T08:04:16;102229.72;;;14.98;70.89
72921;BME280;61064;51.654;5.476;2023-05-23T08:06:41;102245.81;;;15.01;70.81
72921;BME280;61064;51.654;5.476;2023-05-23T08:09:07;102241.34;;;15.02;70.78
72921;BME280;61064;51.654;5.476;2023-05-23T08:11:32;102242.22;;;14.99;70.68
72921;BME280;61064;51.654;5.476;2023-05-23T08:13:57;102238.63;;;14.97;70.78
72921;BME280;61064;51.654;5.476;2023-05-23T08:16:27;102238.66;;;15.00;70.77
72921;BME280;61064;51.654;5.476;2023-05-23T08:18:52;102244.00;;;14.97;70.81
72921;BME280;61064;51.654;5.476;2023-05-23T08:21:17;102248.53;;;15.03;70.92
72921;BME280;61064;51.654;5.476;2023-05-23T08:23:43;102246.63;;;14.94;70.49
72921;BME280;61064;51.654;5.476;2023-05-23T08:26:08;102253.84;;;15.01;70.83
72921;BME280;61064;51.654;5.476;2023-05-23T08:28:33;102250.25;;;14.99;70.97
72921;BME280;61064;51.654;5.476;2023-05-23T08:30:59;102242.22;;;14.97;70.87
72921;BME280;61064;51.654;5.476;2023-05-23T08:33:25;102261.03;;;15.05;70.91
72921;BME280;61064;51.654;5.476;2023-05-23T08:35:50;102256.59;;;15.04;70.88
72921;BME280;61064;51.654;5.476;2023-05-23T08:38:16;102255.63;;;15.01;70.92
72921;BME280;61064;51.654;5.476;2023-05-23T08:40:48;102255.59;;;14.96;71.15
72921;BME280;61064;51.654;5.476;2023-05-23T08:43:15;102252.06;;;15.00;71.31
72921;BME280;61064;51.654;5.476;2023-05-23T08:45:40;102254.81;;;15.08;71.19
72921;BME280;61064;51.654;5.476;2023-05-23T08:48:07;102262.94;;;15.17;71.47
72921;BME280;61064;51.654;5.476;2023-05-23T08:50:38;102256.84;;;15.30;71.17
72921;BME280;61064;51.654;5.476;2023-05-23T08:53:08;102253.34;;;15.37;70.33
72921;BME280;61064;51.654;5.476;2023-05-23T08:55:34;102266.84;;;15.51;70.13
72921;BME280;61064;51.654;5.476;2023-05-23T08:57:59;102258.91;;;15.57;69.44
72921;BME280;61064;51.654;5.476;2023-05-23T09:00:26;102256.25;;;15.61;69.33
72921;BME280;61064;51.654;5.476;2023-05-23T09:02:52;102256.31;;;15.69;68.91
72921;BME280;61064;51.654;5.476;2023-05-23T09:05:19;102259.94;;;15.74;68.71
72921;BME280;61064;51.654;5.476;2023-05-23T09:07:45;102276.13;;;15.82;68.45
72921;BME280;61064;51.654;5.476;2023-05-23T09:10:15;102283.25;;;15.79;68.06
72921;BME280;61064;51.654;5.476;2023-05-23T09:12:47;102280.56;;;15.76;68.20
72921;BME280;61064;51.654;5.476;2023-05-23T09:15:13;102265.28;;;15.71;68.13
72921;BME280;61064;51.654;5.476;2023-05-23T09:17:39;102278.78;;;15.82;67.97
72921;BME280;61064;51.654;5.476;2023-05-23T09:20:15;102268.97;;;15.82;67.57
72921;BME280;61064;51.654;5.476;2023-05-23T09:22:46;102281.56;;;15.92;67.41
72921;BME280;61064;51.654;5.476;2023-05-23T09:25:14;102286.97;;;16.00;67.10
72921;BME280;61064;51.654;5.476;2023-05-23T09:27:41;102289.72;;;16.04;66.97
72921;BME280;61064;51.654;5.476;2023-05-23T09:30:11;102289.75;;;16.10;66.58
72921;BME280;61064;51.654;5.476;2023-05-23T09:32:38;102290.63;;;16.08;66.57
72921;BME280;61064;51.654;5.476;2023-05-23T09:35:05;102293.31;;;16.11;66.53
72921;BME280;61064;51.654;5.476;2023-05-23T09:37:34;102292.44;;;16.13;66.35
72921;BME280;61064;51.654;5.476;2023-05-23T09:40:02;102305.00;;;16.17;65.97
72921;BME280;61064;51.654;5.476;2023-05-23T09:42:31;102279.91;;;16.12;65.75
72921;BME280;61064;51.654;5.476;2023-05-23T09:45:00;102296.03;;;16.17;65.52
72921;BME280;61064;51.654;5.476;2023-05-23T09:47:25;102296.06;;;16.23;65.28
72921;BME280;61064;51.654;5.476;2023-05-23T09:49:57;102291.66;;;16.31;65.22
72921;BME280;61064;51.654;5.476;2023-05-23T09:52:26;102285.41;;;16.35;64.82
72921;BME280;61064;51.654;5.476;2023-05-23T09:54:54;102280.03;;;16.34;64.55
72921;BME280;61064;51.654;5.476;2023-05-23T09:57:22;102291.75;;;16.43;64.15
72921;BME280;61064;51.654;5.476;2023-05-23T09:59:51;102276.56;;;16.57;63.77
72921;BME280;61064;51.654;5.476;2023-05-23T10:02:31;102281.16;;;16.74;63.36
72921;BME280;61064;51.654;5.476;2023-05-23T10:05:06;102276.78;;;16.98;62.97
72921;BME280;61064;51.654;5.476;2023-05-23T10:07:34;102292.03;;;17.22;62.30
72921;BME280;61064;51.654;5.476;2023-05-23T10:10:03;102275.94;;;17.36;61.75
72921;BME280;61064;51.654;5.476;2023-05-23T10:12:41;102297.50;;;17.59;61.28
72921;BME280;61064;51.654;5.476;2023-05-23T10:15:10;102258.03;;;17.67;60.83
72921;BME280;61064;51.654;5.476;2023-05-23T10:20:32;102273.25;;;18.24;60.14
72921;BME280;61064;51.654;5.476;2023-05-23T10:23:00;102284.84;;;18.52;59.37
72921;BME280;61064;51.654;5.476;2023-05-23T10:25:26;102282.09;;;18.73;58.57
72921;BME280;61064;51.654;5.476;2023-05-23T10:27:54;102283.88;;;18.83;57.43
72921;BME280;61064;51.654;5.476;2023-05-23T10:30:29;102282.97;;;18.83;57.45
72921;BME280;61064;51.654;5.476;2023-05-23T10:32:57;102290.16;;;18.82;57.25
72921;BME280;61064;51.654;5.476;2023-05-23T10:35:51;102293.69;;;18.90;56.98
72921;BME280;61064;51.654;5.476;2023-05-23T10:41:10;102264.88;;;18.95;56.39
72921;BME280;61064;51.654;5.476;2023-05-23T10:46:07;102283.63;;;19.23;55.37
72921;BME280;61064;51.654;5.476;2023-05-23T10:48:34;102272.84;;;19.18;55.45
72921;BME280;61064;51.654;5.476;2023-05-23T10:51:06;102289.03;;;19.18;55.41
72921;BME280;61064;51.654;5.476;2023-05-23T10:53:38;102280.97;;;19.12;55.18
72921;BME280;61064;51.654;5.476;2023-05-23T10:56:08;102279.13;;;19.23;54.74
72921;BME280;61064;51.654;5.476;2023-05-23T10:58:36;102275.41;;;19.39;54.22
72921;BME280;61064;51.654;5.476;2023-05-23T11:01:12;102273.53;;;19.54;54.05
72921;BME280;61064;51.654;5.476;2023-05-23T11:06:43;102272.41;;;19.80;53.08
72921;BME280;61064;51.654;5.476;2023-05-23T11:09:18;102285.94;;;19.80;52.88
72921;BME280;61064;51.654;5.476;2023-05-23T11:14:19;102289.47;;;19.88;52.33
72921;BME280;61064;51.654;5.476;2023-05-23T11:16:47;102283.06;;;19.99;52.15
72921;BME280;61064;51.654;5.476;2023-05-23T11:19:26;102259.69;;;19.95;51.95
72921;BME280;61064;51.654;5.476;2023-05-23T11:24:19;102272.88;;;20.23;51.88
72921;BME280;61064;51.654;5.476;2023-05-23T11:26:56;102277.22;;;20.44;50.96
72921;BME280;61064;51.654;5.476;2023-05-23T11:29:26;102278.06;;;20.49;50.90
72921;BME280;61064;51.654;5.476;2023-05-23T11:31:51;102274.44;;;20.49;50.39
72921;BME280;61064;51.654;5.476;2023-05-23T11:34:17;102285.44;;;20.33;50.04
72921;BME280;61064;51.654;5.476;2023-05-23T11:36:46;102289.16;;;20.20;50.14
72921;BME280;61064;51.654;5.476;2023-05-23T11:39:20;102289.09;;;20.26;49.96
72921;BME280;61064;51.654;5.476;2023-05-23T11:42:01;102276.38;;;20.39;49.97
72921;BME280;61064;51.654;5.476;2023-05-23T11:44:27;102271.56;;;20.62;49.97
72921;BME280;61064;51.654;5.476;2023-05-23T11:47:05;102287.50;;;20.87;49.50
72921;BME280;61064;51.654;5.476;2023-05-23T11:49:34;102288.31;;;20.93;49.07
72921;BME280;61064;51.654;5.476;2023-05-23T11:52:03;102290.19;;;20.90;48.91
72921;BME280;61064;51.654;5.476;2023-05-23T11:54:29;102279.38;;;20.85;48.97
72921;BME280;61064;51.654;5.476;2023-05-23T11:56:55;102294.63;;;20.92;48.81
72921;BME280;61064;51.654;5.476;2023-05-23T11:59:24;102282.91;;;20.93;48.74
72921;BME280;61064;51.654;5.476;2023-05-23T12:01:55;102282.09;;;20.87;48.18
72921;BME280;61064;51.654;5.476;2023-05-23T12:04:24;102264.09;;;20.83;47.83
72921;BME280;61064;51.654;5.476;2023-05-23T12:06:51;102284.19;;;20.63;48.17
72921;BME280;61064;51.654;5.476;2023-05-23T12:09:17;102297.81;;;20.56;48.48
72921;BME280;61064;51.654;5.476;2023-05-23T12:11:43;102287.25;;;20.31;48.72
72921;BME280;61064;51.654;5.476;2023-05-23T12:14:18;102304.47;;;20.21;48.90
72921;BME280;61064;51.654;5.476;2023-05-23T12:16:44;102310.81;;;20.13;48.60
72921;BME280;61064;51.654;5.476;2023-05-23T12:19:11;102307.38;;;19.99;48.67
72921;BME280;61064;51.654;5.476;2023-05-23T12:21:44;102299.31;;;19.92;48.34
72921;BME280;61064;51.654;5.476;2023-05-23T12:24:18;102310.03;;;20.02;47.89
72921;BME280;61064;51.654;5.476;2023-05-23T12:26:47;102319.13;;;19.93;47.78
72921;BME280;61064;51.654;5.476;2023-05-23T12:29:13;102302.13;;;19.80;47.91
72921;BME280;61064;51.654;5.476;2023-05-23T12:31:39;102313.75;;;19.90;48.00
72921;BME280;61064;51.654;5.476;2023-05-23T12:34:04;102312.88;;;19.88;47.47
72921;BME280;61064;51.654;5.476;2023-05-23T12:36:30;102311.97;;;19.89;47.58
72921;BME280;61064;51.654;5.476;2023-05-23T12:39:03;102332.59;;;19.96;47.54
72921;BME280;61064;51.654;5.476;2023-05-23T12:41:31;102313.69;;;19.96;47.62
72921;BME280;61064;51.654;5.476;2023-05-23T12:43:58;102317.19;;;20.10;47.41
72921;BME280;61064;51.654;5.476;2023-05-23T12:46:25;102315.28;;;20.20;47.15
72921;BME280;61064;51.654;5.476;2023-05-23T12:48:51;102319.53;;;20.45;46.81
72921;BME280;61064;51.654;5.476;2023-05-23T12:51:17;102316.88;;;20.44;46.40
72921;BME280;61064;51.654;5.476;2023-05-23T12:53:43;102324.97;;;20.44;46.38
72921;BME280;61064;51.654;5.476;2023-05-23T12:56:09;102332.16;;;20.46;46.85
72921;BME280;61064;51.654;5.476;2023-05-23T12:58:34;102327.63;;;20.48;46.79
72921;BME280;61064;51.654;5.476;2023-05-23T13:01:00;102322.22;;;20.48;46.39
72921;BME280;61064;51.654;5.476;2023-05-23T13:03:27;102322.16;;;20.56;46.18
72921;BME280;61064;51.654;5.476;2023-05-23T13:05:53;102308.50;;;20.65;45.99
72921;BME280;61064;51.654;5.476;2023-05-23T13:08:19;102312.97;;;20.69;45.74
72921;BME280;61064;51.654;5.476;2023-05-23T13:10:45;102309.34;;;20.71;45.72